Time;durP1;ratioP1;P1;durP2;ratioP2;P2;SDS_P1;SDS_P2;PMS_P1;PMS_P2;Temp;Humidity;BMP_temperature;BMP_pressure;BME280_temperature;BME280_humidity;BME280_pressure;Samples;Min_cycle;Max_cycle;Signal;HPM_P1;HPM_P2
2023/03/20 00:00:45;;;;;;;8.35;4.03;;;9.70;80.00;;;;;;5051087;28;20120;-74
2023/03/20 00:03:12;;;;;;;5.38;3.47;;;9.80;80.10;;;;;;5050880;28;20025;-74
2023/03/20 00:05:38;;;;;;;5.07;3.03;;;9.80;79.20;;;;;;5051131;28;20501;-73
2023/03/20 00:08:04;;;;;;;7.28;3.22;;;9.80;79.60;;;;;;5051063;28;20024;-73
2023/03/20 00:10:35;;;;;;;8.20;3.60;;;9.80;79.30;;;;;;5049530;28;20493;-74
2023/03/20 00:13:01;;;;;;;8.02;3.47;;;9.80;76.40;;;;;;5050892;28;20048;-74
2023/03/20 00:15:31;;;;;;;;;;;9.90;74.50;;;;;;5051272;28;20383;-74
2023/03/20 00:17:57;;;;;;;7.13;3.30;;;9.90;75.40;;;;;;5050922;28;19947;-74
2023/03/20 00:20:24;;;;;;;10.23;2.70;;;9.90;72.70;;;;;;5050694;28;20021;-74
2023/03/20 00:22:50;;;;;;;8.95;3.55;;;9.90;72.40;;;;;;5049425;28;20029;-73
2023/03/20 00:25:16;;;;;;;;;;;9.90;72.60;;;;;;5049876;28;20075;-74
2023/03/20 00:27:43;;;;;;;6.00;2.92;;;9.90;73.40;;;;;;5050811;28;20003;-73
2023/03/20 00:30:27;;;;;;;7.03;3.03;;;9.90;73.20;;;;;;5050368;28;20053;-74
2023/03/20 00:32:54;;;;;;;6.25;3.20;;;9.80;74.50;;;;;;5049233;28;20037;-73
2023/03/20 00:35:29;;;;;;;5.68;2.60;;;9.80;74.90;;;;;;5050512;28;20096;-73
2023/03/20 00:37:56;;;;;;;9.25;4.32;;;9.80;75.70;;;;;;5049157;28;20033;-74
2023/03/20 00:40:28;;;;;;;6.97;3.38;;;9.80;73.80;;;;;;5050737;28;20102;-74
2023/03/20 00:43:03;;;;;;;7.10;3.72;;;10.00;69.70;;;;;;5049430;28;20028;-74
2023/03/20 00:45:31;;;;;;;5.97;2.80;;;10.00;70.00;;;;;;5050540;28;20052;-74
2023/03/20 00:47:57;;;;;;;8.20;3.63;;;9.90;70.20;;;;;;5050283;28;20036;-74
2023/03/20 00:50:28;;;;;;;;;;;9.80;69.70;;;;;;5050594;28;20740;-75
2023/03/20 00:52:55;;;;;;;5.50;3.05;;;9.90;69.50;;;;;;5050088;28;19913;-74
2023/03/20 00:55:22;;;;;;;9.85;3.30;;;9.80;70.00;;;;;;5048778;28;20470;-74
2023/03/20 00:57:54;;;;;;;5.15;2.53;;;9.90;71.50;;;;;;5050201;28;20025;-74
2023/03/20 01:00:55;;;;;;;10.15;4.03;;;9.80;72.00;;;;;;5048512;28;20037;-75
2023/03/20 01:03:24;;;;;;;7.95;3.80;;;9.70;72.50;;;;;;5048278;28;20064;-75
2023/03/20 01:05:51;;;;;;;6.85;3.80;;;9.70;71.30;;;;;;5050003;28;20021;-74
2023/03/20 01:08:22;;;;;;;7.35;3.33;;;9.60;71.50;;;;;;5050091;28;20248;-74
2023/03/20 01:10:51;;;;;;;7.75;3.60;;;9.60;72.30;;;;;;5049834;28;20037;-73
2023/03/20 01:13:26;;;;;;;7.57;3.58;;;9.50;72.00;;;;;;5048443;28;20064;-74
2023/03/20 01:15:53;;;;;;;4.55;2.47;;;9.50;72.00;;;;;;5049731;28;20040;-73
2023/03/20 01:18:21;;;;;;;5.88;2.83;;;9.40;71.60;;;;;;5049493;28;20516;-73
2023/03/20 01:20:47;;;;;;;5.53;2.53;;;9.50;72.10;;;;;;5049684;28;20459;-74
2023/03/20 01:23:13;;;;;;;10.27;3.22;;;9.40;73.00;;;;;;5048181;28;20524;-74
2023/03/20 01:25:39;;;;;;;5.75;2.72;;;9.30;73.00;;;;;;5048306;28;20049;-75
2023/03/20 01:28:15;;;;;;;;;;;9.30;72.70;;;;;;5049902;28;20118;-74
2023/03/20 01:30:42;;;;;;;9.02;3.60;;;9.30;74.90;;;;;;5047836;28;19920;-74
2023/03/20 01:33:19;;;;;;;6.40;2.70;;;9.20;75.20;;;;;;5049306;28;20056;-74
2023/03/20 01:35:46;;;;;;;10.05;3.22;;;9.30;72.90;;;;;;5048101;28;20850;-74
2023/03/20 01:38:17;;;;;;;6.90;3.00;;;9.40;71.90;;;;;;5049362;28;20082;-74
2023/03/20 01:41:02;;;;;;;4.68;2.53;;;9.50;71.10;;;;;;5049371;28;20481;-74
2023/03/20 01:43:28;;;;;;;5.90;2.83;;;9.50;72.40;;;;;;5046907;28;20029;-74
2023/03/20 01:46:02;;;;;;;5.50;2.70;;;9.40;75.30;;;;;;5049301;28;20021;-74
2023/03/20 01:48:56;;;;;;;7.97;4.45;;;9.30;75.10;;;;;;5047809;28;20052;-74
2023/03/20 01:51:31;;;;;;;6.90;2.33;;;9.30;74.60;;;;;;5038172;28;20047;-75
2023/03/20 01:54:07;;;;;;;4.68;2.58;;;9.30;73.60;;;;;;5048923;28;20043;-74
2023/03/20 01:56:42;;;;;;;4.30;2.25;;;9.30;76.20;;;;;;5047691;28;20029;-74
2023/03/20 01:59:16;;;;;;;6.07;2.78;;;9.20;75.50;;;;;;5048823;28;20031;-74
2023/03/20 02:01:42;;;;;;;5.43;2.95;;;9.20;74.30;;;;;;5049049;28;20063;-74
2023/03/20 02:04:09;;;;;;;8.05;2.78;;;9.30;71.50;;;;;;5047584;28;20036;-75
2023/03/20 02:06:36;;;;;;;6.65;3.45;;;9.20;71.30;;;;;;5048981;28;20025;-74
2023/03/20 02:09:03;;;;;;;7.53;3.10;;;9.20;71.20;;;;;;5047398;28;20021;-74
2023/03/20 02:11:29;;;;;;;4.40;2.35;;;9.30;70.00;;;;;;5048655;28;20143;-74
2023/03/20 02:13:58;;;;;;;8.65;3.67;;;9.40;69.00;;;;;;5047023;28;20039;-75
2023/03/20 02:16:24;;;;;;;6.28;3.20;;;9.50;68.90;;;;;;5047437;28;20032;-74
2023/03/20 02:18:52;;;;;;;4.72;2.50;;;9.50;69.40;;;;;;5048737;28;20025;-73
2023/03/20 02:21:45;;;;;;;7.78;3.17;;;9.50;70.60;;;;;;5047215;28;20054;-74
2023/03/20 02:24:22;;;;;;;6.07;2.30;;;9.40;71.80;;;;;;5048505;28;20052;-73
2023/03/20 02:27:16;;;;;;;5.57;2.70;;;9.30;72.50;;;;;;5048343;28;20067;-74
2023/03/20 02:30:00;;;;;;;6.35;2.72;;;9.20;73.50;;;;;;5046968;28;20041;-73
2023/03/20 02:32:44;;;;;;;6.88;3.28;;;9.10;74.80;;;;;;5046873;28;20409;-74
2023/03/20 02:35:55;;;;;;;5.25;2.83;;;9.00;76.60;;;;;;5047249;28;20052;-74
2023/03/20 02:38:36;;;;;;;10.70;2.80;;;8.90;77.60;;;;;;5045637;28;20646;-73
2023/03/20 02:41:23;;;;;;;4.85;2.85;;;8.80;77.90;;;;;;5045414;28;20087;-73
2023/03/20 02:44:01;;;;;;;7.80;2.88;;;8.80;78.50;;;;;;5041738;28;20041;-74
2023/03/20 02:46:57;;;;;;;4.95;2.97;;;8.70;80.20;;;;;;5047081;28;20063;-74
2023/03/20 02:49:29;;;;;;;7.47;3.20;;;8.70;81.00;;;;;;5048011;28;20036;-74
2023/03/20 02:52:33;;;;;;;7.57;3.95;;;8.70;83.60;;;;;;5048279;28;20029;-74
2023/03/20 02:55:16;;;;;;;5.85;2.70;;;8.60;84.20;;;;;;5046927;28;20025;-74
2023/03/20 02:58:20;;;;;;;6.10;3.13;;;8.60;82.20;;;;;;5048143;28;20025;-74
2023/03/20 03:00:57;;;;;;;7.93;3.00;;;8.60;83.10;;;;;;5048185;28;20132;-74
2023/03/20 03:03:31;;;;;;;6.68;2.95;;;8.70;81.90;;;;;;5048122;28;20108;-73
2023/03/20 03:06:23;;;;;;;6.22;2.78;;;8.70;81.70;;;;;;5046842;28;20048;-74
2023/03/20 03:08:54;;;;;;;3.33;1.95;;;8.70;81.10;;;;;;5046808;28;20056;-74
2023/03/20 03:11:20;;;;;;;7.47;2.30;;;8.70;80.70;;;;;;5046571;28;20037;-74
2023/03/20 03:13:47;;;;;;;;;;;8.60;80.50;;;;;;5048374;28;20040;-74
2023/03/20 03:16:16;;;;;;;;;;;8.60;80.30;;;;;;5048436;28;19915;-74
2023/03/20 03:18:43;;;;;;;8.07;2.75;;;8.70;80.80;;;;;;5047866;28;19915;-74
2023/03/20 03:21:12;;;;;;;7.07;2.55;;;8.70;83.40;;;;;;5046560;28;20029;-74
2023/03/20 03:23:45;;;;;;;5.95;3.05;;;8.60;84.00;;;;;;5047280;28;20390;-74
2023/03/20 03:26:23;;;;;;;7.15;3.05;;;8.60;85.70;;;;;;5050527;28;20762;-74
2023/03/20 03:28:53;;;;;;;7.70;3.38;;;8.50;87.20;;;;;;5050479;28;20119;-74
2023/03/20 03:31:20;;;;;;;4.97;2.80;;;8.60;89.40;;;;;;5051992;28;20036;-74
2023/03/20 03:33:49;;;;;;;7.18;2.80;;;8.70;86.50;;;;;;5052298;28;20362;-73
2023/03/20 03:36:18;;;;;;;7.90;3.30;;;8.90;84.60;;;;;;5050290;28;20547;-74
2023/03/20 03:39:06;;;;;;;7.45;3.35;;;9.00;80.60;;;;;;5051551;28;20040;-74
2023/03/20 03:41:55;;;;;;;8.13;3.10;;;9.10;80.50;;;;;;5050056;28;20044;-74
2023/03/20 03:44:34;;;;;;;5.13;2.63;;;9.10;78.20;;;;;;5050920;28;20051;-74
2023/03/20 03:47:03;;;;;;;7.25;3.13;;;9.10;78.50;;;;;;5051523;28;20047;-74
2023/03/20 03:49:36;;;;;;;7.00;3.35;;;9.10;79.60;;;;;;5050269;28;20055;-75
2023/03/20 03:52:07;;;;;;;6.85;2.80;;;9.10;80.30;;;;;;5051116;28;20044;-74
2023/03/20 03:54:41;;;;;;;7.38;2.85;;;9.00;81.40;;;;;;5049829;28;20409;-74
2023/03/20 03:57:09;;;;;;;9.52;3.10;;;9.00;81.60;;;;;;5051181;28;20025;-74
2023/03/20 03:59:42;;;;;;;8.90;3.25;;;9.00;82.20;;;;;;5051300;28;20457;-73
2023/03/20 04:02:08;;;;;;;10.20;4.70;;;8.90;82.60;;;;;;5051124;28;20413;-73
2023/03/20 04:04:39;;;;;;;9.32;3.92;;;8.90;82.80;;;;;;5049831;28;20025;-74
2023/03/20 04:07:04;;;;;;;7.20;3.40;;;8.90;80.70;;;;;;5049560;28;20505;-73
2023/03/20 04:09:30;;;;;;;;;;;9.00;78.20;;;;;;5051574;28;20013;-74
2023/03/20 04:11:56;;;;;;;6.00;2.63;;;8.90;78.70;;;;;;5050886;28;20003;-73
2023/03/20 04:14:22;;;;;;;;;;;9.00;76.10;;;;;;5051336;28;20178;-73
2023/03/20 04:16:47;;;;;;;6.38;2.75;;;9.10;74.30;;;;;;5050900;28;19916;-74
2023/03/20 04:19:13;;;;;;;6.88;3.08;;;9.20;72.30;;;;;;5049441;28;20485;-74
2023/03/20 04:21:38;;;;;;;;;;;9.30;71.30;;;;;;5050003;28;20033;-74
2023/03/20 04:24:04;;;;;;;6.43;3.08;;;9.40;70.20;;;;;;5049513;28;19970;-73
2023/03/20 04:26:30;;;;;;;;;;;9.50;69.80;;;;;;5051143;28;20033;-74
2023/03/20 04:28:56;;;;;;;4.00;2.22;;;9.50;69.90;;;;;;5050651;28;19937;-75
2023/03/20 04:31:22;;;;;;;;;;;9.40;71.10;;;;;;5050919;28;20520;-74
2023/03/20 04:33:47;;;;;;;6.97;3.20;;;9.30;72.10;;;;;;5049201;28;19913;-75
2023/03/20 04:36:13;;;;;;;;;;;9.20;73.50;;;;;;5050347;28;20025;-74
2023/03/20 04:38:40;;;;;;;11.10;4.13;;;9.10;78.00;;;;;;5050349;28;19995;-74
2023/03/20 04:41:06;;;;;;;10.10;5.25;;;9.00;83.00;;;;;;5050284;28;20104;-74
2023/03/20 04:43:32;;;;;;;15.15;8.27;;;8.80;85.50;;;;;;5050296;28;20025;-74
2023/03/20 04:45:58;;;;;;;;;;;8.70;90.40;;;;;;5050814;28;20032;-74
2023/03/20 04:48:24;;;;;;;8.65;4.75;;;8.50;90.70;;;;;;5048965;28;20365;-73
2023/03/20 04:50:49;;;;;;;;;;;8.50;91.60;;;;;;5049243;28;20060;-74
2023/03/20 04:53:16;;;;;;;11.27;4.82;;;8.50;91.50;;;;;;5049957;28;19993;-75
2023/03/20 04:55:43;;;;;;;10.52;4.40;;;8.40;92.00;;;;;;5048806;28;20021;-74
2023/03/20 04:58:08;;;;;;;11.65;3.97;;;8.40;92.60;;;;;;5050154;28;20025;-74
2023/03/20 05:00:34;;;;;;;;;;;8.50;92.10;;;;;;5050524;28;20055;-74
2023/03/20 05:03:00;;;;;;;10.48;5.15;;;8.50;92.50;;;;;;5048760;28;19948;-73
2023/03/20 05:05:25;;;;;;;;;;;8.50;91.70;;;;;;5050307;28;20025;-74
2023/03/20 05:07:51;;;;;;;13.43;5.88;;;8.50;92.00;;;;;;5048935;28;19962;-74
2023/03/20 05:10:17;;;;;;;;;;;8.50;91.80;;;;;;5048910;28;20029;-72
2023/03/20 05:12:43;;;;;;;9.63;3.85;;;8.50;93.10;;;;;;5049810;28;19917;-73
2023/03/20 05:15:09;;;;;;;;;;;8.50;91.90;;;;;;5050056;28;20028;-74
2023/03/20 05:17:35;;;;;;;12.85;5.03;;;8.50;91.40;;;;;;5049709;28;20316;-74
2023/03/20 05:20:01;;;;;;;;;;;8.50;91.20;;;;;;5048815;28;20032;-74
2023/03/20 05:22:26;;;;;;;13.75;6.95;;;8.50;91.60;;;;;;5049390;28;19909;-74
2023/03/20 05:24:52;;;;;;;;;;;8.70;90.30;;;;;;5050012;28;20064;-73
2023/03/20 05:27:18;;;;;;;11.90;6.45;;;8.80;89.30;;;;;;5049355;28;19944;-74
2023/03/20 05:29:43;;;;;;;;;;;8.90;86.80;;;;;;5049600;28;20099;-75
2023/03/20 05:32:09;;;;;;;11.38;5.63;;;9.00;86.30;;;;;;5049111;28;20007;-74
2023/03/20 05:34:34;;;;;;;;;;;9.10;86.30;;;;;;5049701;28;20151;-73
2023/03/20 05:37:00;;;;;;;11.20;3.78;;;9.10;83.30;;;;;;5047973;28;19912;-75
2023/03/20 05:39:26;;;;;;;;;;;9.30;80.80;;;;;;5049522;28;20029;-74
2023/03/20 05:41:51;;;;;;;10.40;6.32;;;9.40;79.50;;;;;;5047363;28;20739;-74
2023/03/20 05:44:17;;;;;;;;;;;9.50;79.20;;;;;;5049099;28;20516;-73
2023/03/20 05:46:43;;;;;;;14.38;6.60;;;9.70;78.80;;;;;;5048563;28;19904;-75
2023/03/20 05:49:08;;;;;;;;;;;9.70;79.80;;;;;;5048588;28;20035;-74
2023/03/20 05:51:34;;;;;;;23.50;13.57;;;9.80;81.10;;;;;;5049085;28;20027;-74
2023/03/20 05:54:00;;;;;;;;;;;9.80;82.70;;;;;;5048137;28;20124;-74
2023/03/20 05:56:25;;;;;;;37.83;21.65;;;9.80;87.00;;;;;;5049302;28;19962;-74
2023/03/20 05:58:51;;;;;;;;;;;9.90;86.30;;;;;;5049238;28;20027;-73
2023/03/20 06:01:20;;;;;;;23.52;12.93;;;10.00;85.10;;;;;;5048531;28;19919;-74
2023/03/20 06:03:46;;;;;;;24.83;12.77;;;10.10;83.10;;;;;;5048960;28;20078;-73
2023/03/20 06:06:12;;;;;;;21.95;12.38;;;10.30;81.90;;;;;;5048614;28;20021;-73
2023/03/20 06:08:37;;;;;;;;;;;10.30;78.20;;;;;;5047925;28;20035;-72
2023/03/20 06:11:04;;;;;;;29.00;12.38;;;10.50;80.30;;;;;;5048283;28;20003;-73
2023/03/20 06:13:29;;;;;;;;;;;10.50;81.40;;;;;;5047620;28;20025;-74
2023/03/20 06:15:55;;;;;;;17.88;9.27;;;10.50;81.70;;;;;;5049040;28;20409;-74
2023/03/20 06:18:20;;;;;;;;;;;10.60;83.10;;;;;;5049669;28;20044;-73
2023/03/20 06:20:52;;;;;;;23.00;7.13;;;10.70;82.30;;;;;;5047343;28;20542;-73
2023/03/20 06:23:17;;;;;;;16.10;4.38;;;10.80;82.20;;;;;;5048372;28;20033;-74
2023/03/20 06:25:43;;;;;;;;;;;10.90;80.80;;;;;;5048958;28;20079;-74
2023/03/20 06:28:08;;;;;;;15.30;5.70;;;11.00;81.60;;;;;;5047006;28;19908;-74
2023/03/20 06:30:34;;;;;;;;;;;11.10;79.60;;;;;;5048652;28;20094;-73
2023/03/20 06:33:00;;;;;;;9.95;4.80;;;11.20;78.50;;;;;;5048161;28;20295;-74
2023/03/20 06:35:29;;;;;;;;;;;11.40;77.80;;;;;;5048410;28;20045;-75
2023/03/20 06:37:56;;;;;;;14.15;4.63;;;11.70;75.70;;;;;;5046873;28;19909;-73
2023/03/20 06:40:22;;;;;;;14.25;4.63;;;12.00;75.40;;;;;;5046672;28;20568;-74
2023/03/20 06:42:47;;;;;;;;;;;12.40;72.70;;;;;;5047128;28;20086;-75
2023/03/20 06:45:13;;;;;;;13.75;6.30;;;12.80;70.60;;;;;;5046939;28;19995;-74
2023/03/20 06:47:39;;;;;;;;;;;13.10;68.00;;;;;;5048803;28;20133;-73
2023/03/20 06:50:05;;;;;;;15.30;5.85;;;13.50;65.40;;;;;;5048249;28;19954;-74
2023/03/20 06:52:31;;;;;;;9.90;6.00;;;13.80;63.30;;;;;;5046799;28;20037;-74
2023/03/20 06:54:57;;;;;;;;;;;14.10;62.00;;;;;;5048545;28;20029;-75
2023/03/20 06:57:23;;;;;;;18.83;12.05;;;14.60;61.30;;;;;;5048105;28;20470;-75
2023/03/20 06:59:49;;;;;;;12.07;7.18;;;15.10;60.60;;;;;;5049694;28;20029;-74
2023/03/20 07:02:15;;;;;;;;;;;15.40;57.40;;;;;;5052738;28;20074;-75
2023/03/20 07:04:41;;;;;;;8.20;3.38;;;15.50;52.40;;;;;;5052417;28;20296;-73
2023/03/20 07:07:07;;;;;;;;;;;15.70;51.70;;;;;;5052527;28;20650;-75
2023/03/20 07:09:33;;;;;;;8.90;3.45;;;15.80;49.80;;;;;;5052222;28;19935;-74
2023/03/20 07:11:58;;;;;;;;;;;15.90;50.60;;;;;;5052462;28;20044;-74
2023/03/20 07:14:24;;;;;;;4.45;2.70;;;16.30;49.10;;;;;;5052039;28;19962;-75
2023/03/20 07:16:50;;;;;;;7.15;2.45;;;16.70;47.60;;;;;;5050817;28;20028;-74
2023/03/20 07:19:17;;;;;;;8.15;2.72;;;17.10;47.30;;;;;;5050562;28;20033;-74
2023/03/20 07:21:43;;;;;;;8.15;4.05;;;17.70;45.30;;;;;;5051814;28;20032;-74
2023/03/20 07:24:09;;;;;;;11.50;5.30;;;17.90;44.00;;;;;;5050589;28;20032;-75
2023/03/20 07:26:35;;;;;;;20.80;10.55;;;18.00;44.00;;;;;;5051831;28;20029;-75
2023/03/20 07:29:01;;;;;;;19.42;11.63;;;18.00;43.70;;;;;;5050335;28;20126;-73
2023/03/20 07:31:28;;;;;;;19.05;11.80;;;18.10;44.10;;;;;;5051438;28;20532;-73
2023/03/20 07:33:54;;;;;;;8.02;3.50;;;18.60;43.20;;;;;;5051777;28;20021;-74
2023/03/20 07:36:20;;;;;;;7.00;2.92;;;18.90;42.40;;;;;;5050475;28;20028;-74
2023/03/20 07:38:46;;;;;;;5.50;2.55;;;19.10;41.10;;;;;;5051690;28;20035;-74
2023/03/20 07:41:11;;;;;;;7.97;2.80;;;19.30;41.20;;;;;;5050060;28;20499;-76
2023/03/20 07:43:37;;;;;;;5.78;2.88;;;19.50;40.50;;;;;;5051455;28;20551;-74
2023/03/20 07:46:04;;;;;;;4.95;2.63;;;19.60;40.00;;;;;;5051522;28;20025;-75
2023/03/20 07:48:30;;;;;;;6.20;2.83;;;19.40;40.10;;;;;;5050013;28;20496;-75
2023/03/20 07:50:55;;;;;;;8.90;3.17;;;19.70;40.30;;;;;;5051274;28;20032;-74
2023/03/20 07:53:21;;;;;;;7.70;3.50;;;19.80;39.40;;;;;;5051187;28;20460;-75
2023/03/20 07:55:47;;;;;;;10.05;3.05;;;20.00;38.90;;;;;;5049814;28;20538;-74
2023/03/20 07:58:12;;;;;;;7.00;3.78;;;20.20;38.90;;;;;;5049973;28;20036;-75
2023/03/20 08:00:38;;;;;;;7.03;3.67;;;20.00;39.10;;;;;;5049952;28;20025;-74
2023/03/20 08:03:04;;;;;;;5.78;3.35;;;19.90;38.80;;;;;;5050811;28;20037;-74
2023/03/20 08:05:30;;;;;;;5.60;3.47;;;20.00;38.70;;;;;;5050845;28;20071;-75
2023/03/20 08:07:55;;;;;;;6.85;3.60;;;20.00;39.00;;;;;;5051009;28;20086;-75
2023/03/20 08:10:21;;;;;;;7.25;4.05;;;20.20;39.80;;;;;;5049807;28;20096;-75
2023/03/20 08:12:46;;;;;;;6.78;3.50;;;20.50;40.90;;;;;;5050938;28;20044;-74
2023/03/20 08:15:12;;;;;;;9.50;4.43;;;21.10;39.80;;;;;;5049490;28;20017;-75
2023/03/20 08:17:44;;;;;;;13.25;4.15;;;21.50;38.70;;;;;;5050977;28;20489;-75
2023/03/20 08:20:11;;;;;;;6.07;3.60;;;21.90;37.80;;;;;;5051018;28;20049;-74
2023/03/20 08:22:38;;;;;;;9.15;3.28;;;22.10;36.80;;;;;;5049512;28;20497;-75
2023/03/20 08:25:04;;;;;;;5.68;3.20;;;22.20;34.50;;;;;;5049213;28;20029;-75
2023/03/20 08:27:30;;;;;;;4.82;2.75;;;21.80;34.30;;;;;;5049528;28;20029;-75
2023/03/20 08:29:55;;;;;;;6.15;3.17;;;21.30;35.70;;;;;;5050657;28;20142;-76
2023/03/20 08:32:21;;;;;;;5.43;3.03;;;21.00;35.20;;;;;;5050476;28;20121;-75
2023/03/20 08:34:47;;;;;;;4.82;3.10;;;20.70;35.60;;;;;;5050700;28;20032;-74
2023/03/20 08:37:12;;;;;;;5.03;2.65;;;20.40;36.50;;;;;;5050690;28;20033;-74
2023/03/20 08:39:39;;;;;;;5.45;2.63;;;20.30;36.80;;;;;;5050878;28;20025;-74
2023/03/20 08:42:05;;;;;;;5.97;3.03;;;20.30;36.70;;;;;;5049174;28;20098;-75
2023/03/20 08:44:31;;;;;;;8.15;3.65;;;20.50;36.40;;;;;;5050510;28;20028;-75
2023/03/20 08:46:57;;;;;;;5.95;2.85;;;20.50;36.50;;;;;;5050317;28;20036;-73
2023/03/20 08:49:23;;;;;;;6.03;3.25;;;20.50;36.30;;;;;;5049100;28;20025;-74
2023/03/20 08:51:49;;;;;;;12.15;4.90;;;20.70;36.40;;;;;;5050153;28;20037;-75
2023/03/20 08:54:17;;;;;;;15.15;7.60;;;21.10;37.10;;;;;;5048909;28;20082;-74
2023/03/20 08:56:43;;;;;;;14.45;6.75;;;21.50;38.40;;;;;;5050288;28;20025;-74
2023/03/20 08:59:09;;;;;;;13.95;6.05;;;21.90;37.40;;;;;;5048476;28;20401;-75
2023/03/20 09:01:35;;;;;;;11.88;5.40;;;22.40;37.10;;;;;;5050059;28;20029;-76
2023/03/20 09:04:01;;;;;;;10.90;4.80;;;22.70;36.10;;;;;;5050115;28;20039;-75
2023/03/20 09:06:26;;;;;;;10.43;4.78;;;22.60;36.10;;;;;;5050203;28;20512;-74
2023/03/20 09:08:55;;;;;;;12.77;4.95;;;22.80;36.40;;;;;;5050193;28;20033;-77
2023/03/20 09:11:21;;;;;;;6.35;3.95;;;23.00;36.10;;;;;;5049956;28;20048;-75
2023/03/20 09:13:47;;;;;;;6.65;4.13;;;23.10;35.60;;;;;;5049728;28;20033;-73
2023/03/20 09:16:13;;;;;;;8.50;4.40;;;23.10;35.10;;;;;;5049759;28;20544;-75
2023/03/20 09:18:38;;;;;;;7.18;3.88;;;23.20;35.30;;;;;;5049742;28;20556;-76
2023/03/20 09:21:04;;;;;;;5.70;3.95;;;23.40;35.30;;;;;;5049271;28;20875;-74
2023/03/20 09:23:30;;;;;;;9.73;3.85;;;23.50;34.80;;;;;;5048106;28;20517;-76
2023/03/20 09:25:56;;;;;;;9.15;3.88;;;23.40;35.00;;;;;;5049570;28;20047;-74
2023/03/20 09:28:22;;;;;;;6.55;4.05;;;23.30;35.20;;;;;;5048191;28;20036;-74
2023/03/20 09:30:48;;;;;;;12.02;3.55;;;23.50;34.80;;;;;;5048097;28;20045;-75
2023/03/20 09:33:14;;;;;;;6.13;4.10;;;23.40;34.80;;;;;;5049440;28;20497;-75
2023/03/20 09:35:40;;;;;;;6.97;3.42;;;23.40;34.70;;;;;;5048879;28;20032;-75
2023/03/20 09:38:07;;;;;;;6.43;3.58;;;23.30;34.90;;;;;;5049225;28;20029;-75
2023/03/20 09:40:44;;;;;;;10.77;4.00;;;23.40;34.40;;;;;;5049215;28;20066;-74
2023/03/20 09:43:25;;;;;;;8.57;3.25;;;23.50;34.20;;;;;;5049171;28;20027;-75
2023/03/20 09:46:29;;;;;;;6.57;4.30;;;23.50;34.00;;;;;;5049206;28;20028;-74
2023/03/20 09:49:24;;;;;;;10.38;4.00;;;23.20;34.70;;;;;;5047676;28;20029;-74
2023/03/20 09:51:52;;;;;;;7.78;3.63;;;23.40;34.50;;;;;;5048933;28;20442;-74
2023/03/20 09:54:34;;;;;;;10.77;3.35;;;23.30;34.80;;;;;;5048868;28;20017;-74
2023/03/20 09:57:02;;;;;;;6.05;3.10;;;23.20;34.50;;;;;;5049102;28;20025;-74
2023/03/20 09:59:31;;;;;;;5.43;3.20;;;23.20;34.50;;;;;;5049097;28;20104;-74
2023/03/20 10:02:23;;;;;;;7.65;4.05;;;23.20;34.80;;;;;;5049105;28;20069;-75
2023/03/20 10:04:52;;;;;;;7.53;3.92;;;23.10;34.80;;;;;;5048188;28;20112;-74
2023/03/20 10:07:18;;;;;;;8.57;3.60;;;22.80;34.60;;;;;;5047465;28;20041;-75
2023/03/20 10:09:44;;;;;;;6.70;4.05;;;22.60;34.90;;;;;;5048925;28;20079;-75
2023/03/20 10:12:26;;;;;;;11.82;4.25;;;22.50;35.30;;;;;;5047369;28;20094;-75
2023/03/20 10:15:11;;;;;;;11.60;3.55;;;22.70;35.50;;;;;;5048837;28;20040;-75
2023/03/20 10:18:15;;;;;;;8.75;3.53;;;22.60;35.80;;;;;;5048554;28;20052;-75
2023/03/20 10:21:01;;;;;;;5.57;3.90;;;22.60;35.60;;;;;;5045760;28;20029;-75
2023/03/20 10:23:46;;;;;;;6.72;4.00;;;22.60;35.40;;;;;;5029182;28;20029;-74
2023/03/20 10:26:15;;;;;;;8.43;4.20;;;22.60;35.30;;;;;;5041487;28;20496;-75
2023/03/20 10:28:50;;;;;;;11.00;3.67;;;22.50;35.30;;;;;;5046448;28;20024;-73
2023/03/20 10:31:31;;;;;;;7.67;4.03;;;22.40;35.70;;;;;;5046446;28;20116;-75
2023/03/20 10:34:15;;;;;;;8.05;3.72;;;22.50;35.30;;;;;;5047592;28;20043;-75
2023/03/20 10:37:08;;;;;;;6.90;3.38;;;22.40;35.70;;;;;;5048626;28;20033;-75
2023/03/20 10:40:08;;;;;;;9.63;4.30;;;22.10;35.70;;;;;;5048398;28;20056;-74
2023/03/20 10:42:38;;;;;;;12.52;3.70;;;21.80;36.40;;;;;;5047654;28;20037;-75
2023/03/20 10:45:17;;;;;;;8.50;3.80;;;21.50;36.70;;;;;;5047931;28;20772;-74
2023/03/20 10:47:47;;;;;;;9.70;4.13;;;21.30;37.70;;;;;;5046954;28;20469;-74
2023/03/20 10:50:18;;;;;;;7.25;3.85;;;21.10;37.30;;;;;;5048477;28;20033;-74
2023/03/20 10:52:45;;;;;;;6.47;3.67;;;21.00;37.80;;;;;;5046946;28;20031;-74
2023/03/20 10:55:27;;;;;;;9.63;4.05;;;20.90;37.80;;;;;;5048168;28;20029;-74
2023/03/20 10:58:07;;;;;;;11.55;3.90;;;20.80;37.70;;;;;;5048182;28;20133;-74
2023/03/20 11:00:33;;;;;;;8.60;4.47;;;20.70;37.80;;;;;;5048048;28;20752;-74
2023/03/20 11:02:59;;;;;;;6.85;3.97;;;20.50;37.90;;;;;;5047968;28;20071;-74
2023/03/20 11:05:32;;;;;;;13.02;4.68;;;20.40;38.20;;;;;;5046803;28;20438;-74
2023/03/20 11:08:35;;;;;;;7.57;3.70;;;20.50;38.60;;;;;;5046867;28;20032;-74
2023/03/20 11:11:02;;;;;;;14.57;4.45;;;20.40;39.30;;;;;;5046828;28;20451;-73
2023/03/20 11:13:35;;;;;;;7.13;3.97;;;20.40;39.20;;;;;;5047714;28;20174;-73
2023/03/20 11:16:20;;;;;;;7.93;3.97;;;20.40;39.60;;;;;;5047825;28;20108;-76
2023/03/20 11:18:51;;;;;;;8.52;4.53;;;20.40;39.30;;;;;;5047797;28;20071;-73
2023/03/20 11:21:26;;;;;;;9.75;4.10;;;20.20;38.50;;;;;;5046629;28;20040;-73
2023/03/20 11:23:53;;;;;;;6.68;4.10;;;20.10;37.50;;;;;;5047871;28;20079;-74
2023/03/20 11:26:31;;;;;;;12.35;4.93;;;19.90;38.40;;;;;;5046560;28;20447;-74
2023/03/20 11:28:58;;;;;;;7.05;3.88;;;20.00;39.10;;;;;;5047805;28;20049;-75
2023/03/20 11:31:33;;;;;;;7.68;3.75;;;20.00;39.00;;;;;;5047736;28;20033;-74
2023/03/20 11:34:10;;;;;;;8.88;4.80;;;20.00;39.50;;;;;;5048017;28;20017;-74
2023/03/20 11:36:38;;;;;;;11.02;4.10;;;20.10;38.70;;;;;;5047950;28;20029;-74
2023/03/20 11:39:09;;;;;;;7.63;3.95;;;20.00;39.00;;;;;;5047715;28;20044;-74
2023/03/20 11:41:51;;;;;;;7.00;4.20;;;20.00;39.00;;;;;;5047743;28;20116;-74
2023/03/20 11:44:26;;;;;;;6.45;4.15;;;20.00;39.60;;;;;;5046398;28;20048;-73
2023/03/20 11:47:19;;;;;;;8.88;4.30;;;20.00;39.40;;;;;;5050492;28;20127;-74
2023/03/20 11:49:54;;;;;;;10.23;4.45;;;19.90;39.40;;;;;;5050526;28;20041;-74
2023/03/20 11:52:27;;;;;;;6.72;3.63;;;19.90;39.90;;;;;;5050144;28;20029;-74
2023/03/20 11:54:57;;;;;;;6.72;3.70;;;19.90;40.10;;;;;;5050438;28;20032;-74
2023/03/20 11:57:33;;;;;;;8.55;4.38;;;19.80;40.00;;;;;;5049506;28;20029;-74
2023/03/20 12:00:05;;;;;;;;;;;19.80;39.70;;;;;;5050514;28;20052;-75
2023/03/20 12:02:31;;;;;;;9.18;4.60;;;19.70;38.90;;;;;;5051294;28;19951;-74
2023/03/20 12:05:00;;;;;;;7.22;3.97;;;19.70;40.10;;;;;;5049855;28;20052;-73
2023/03/20 12:07:35;;;;;;;6.95;4.22;;;19.80;40.10;;;;;;5049587;28;20454;-75
2023/03/20 12:10:09;;;;;;;6.50;3.97;;;19.70;40.30;;;;;;5050878;28;20021;-74
2023/03/20 12:13:00;;;;;;;12.90;4.93;;;19.70;39.70;;;;;;5049551;28;20045;-74
2023/03/20 12:15:27;;;;;;;12.10;5.15;;;19.60;39.70;;;;;;5049542;28;20033;-75
2023/03/20 12:18:15;;;;;;;8.57;5.07;;;19.60;39.40;;;;;;5051492;28;20025;-74
2023/03/20 12:21:15;;;;;;;8.50;4.57;;;19.70;39.90;;;;;;5049835;28;20075;-74
2023/03/20 12:23:48;;;;;;;7.10;4.32;;;19.70;40.30;;;;;;5050507;28;20029;-76
2023/03/20 12:26:43;;;;;;;11.98;4.10;;;19.60;40.40;;;;;;5050838;28;20472;-74
2023/03/20 12:29:15;;;;;;;8.18;4.45;;;19.60;40.40;;;;;;5050370;28;20056;-76
2023/03/20 12:31:52;;;;;;;8.30;4.70;;;19.70;40.60;;;;;;5050499;28;20521;-75
2023/03/20 12:34:36;;;;;;;8.68;4.65;;;19.70;39.50;;;;;;5050723;28;20029;-74
2023/03/20 12:37:03;;;;;;;10.75;5.88;;;19.60;39.40;;;;;;5050539;28;20035;-73
2023/03/20 12:39:40;;;;;;;8.65;4.43;;;19.60;40.10;;;;;;5048971;28;20021;-74
2023/03/20 12:42:39;;;;;;;14.07;4.85;;;19.40;39.40;;;;;;5050230;28;20041;-74
2023/03/20 12:45:17;;;;;;;7.43;4.13;;;19.30;40.10;;;;;;5048932;28;20082;-73
2023/03/20 12:48:06;;;;;;;7.88;4.57;;;19.40;40.50;;;;;;5050082;28;20017;-74
2023/03/20 12:50:40;;;;;;;10.07;5.20;;;19.50;40.90;;;;;;5050412;28;20065;-74
2023/03/20 12:53:29;;;;;;;10.60;4.70;;;19.50;39.80;;;;;;5050047;28;20045;-73
2023/03/20 12:56:21;;;;;;;9.48;4.80;;;19.50;39.60;;;;;;5048788;28;20116;-75
2023/03/20 12:58:54;;;;;;;9.18;4.65;;;19.40;39.70;;;;;;5049897;28;20041;-73
2023/03/20 13:01:37;;;;;;;11.60;4.05;;;19.40;40.30;;;;;;5049866;28;20025;-74
2023/03/20 13:04:25;;;;;;;10.63;4.93;;;19.50;40.20;;;;;;5050097;28;20079;-74
2023/03/20 13:06:55;;;;;;;6.57;4.53;;;19.60;40.30;;;;;;5048645;28;20082;-74
2023/03/20 13:09:31;;;;;;;7.45;4.40;;;19.60;39.90;;;;;;5048980;28;20033;-73
2023/03/20 13:12:35;;;;;;;7.22;3.55;;;19.50;39.90;;;;;;5049428;28;20060;-74
2023/03/20 13:15:18;;;;;;;7.05;4.15;;;19.50;40.60;;;;;;5047066;28;20025;-73
2023/03/20 13:17:44;;;;;;;7.85;4.38;;;19.40;40.80;;;;;;5029955;28;20029;-74
2023/03/20 13:20:30;;;;;;;7.75;4.38;;;19.50;41.50;;;;;;5039336;28;20079;-74